Time,TemperatureF,DewpointF,PressureIn,WindDirection,WindDirectionDegrees,WindSpeedMPH,WindSpeedGustMPH,Humidity,HourlyPrecipIn,Conditions,Clouds,dailyrainin,SolarRadiationWatts/m^2,SoftwareType,DateUTC
2013-02-20 00:00:00,35.9,35.6,29.48,East,90,0.0,2.0,99,0.00,OVC,SCT,0.00,0.0,WeatherDisplay:10.37,2013-02-20 05:00:00,
2013-02-20 00:05:00,36.0,35.7,29.48,East,90,0.0,1.0,99,0.00,OVC,SCT,0.00,0.0,WeatherDisplay:10.37,2013-02-20 05:05:00,
2013-02-20 00:10:00,36.0,35.7,29.47,ESE,111,0.0,2.0,99,0.00,OVC,SCT,0.00,0.0,WeatherDisplay:10.37,2013-02-20 05:10:00,
2013-02-20 00:15:00,36.2,35.9,29.47,SSW,203,0.0,2.0,99,0.00,OVC,SCT,0.00,0.0,WeatherDisplay:10.37,2013-02-20 05:15:00,
2013-02-20 00:25:00,36.9,36.6,29.46,SE,137,0.0,2.0,99,0.00,OVC,SCT,0.00,0.0,WeatherDisplay:10.37,2013-02-20 05:25:00,
2013-02-20 00:30:00,37.0,36.8,29.47,South,175,0.0,2.0,99,0.00,OVC,SCT,0.00,0.0,WeatherDisplay:10.37,2013-02-20 05:30:00,
2013-02-20 00:40:00,37.0,36.8,29.46,SW,216,0.0,2.0,99,0.00,BKN,SCT,0.00,0.0,WeatherDisplay:10.37,2013-02-20 05:40:00,
2013-02-20 00:45:00,37.1,36.8,29.45,ESE,118,0.0,3.0,99,0.00,BKN,SCT,0.00,0.0,WeatherDisplay:10.37,2013-02-20 05:45:00,
2013-02-20 00:55:00,36.9,36.7,29.45,SW,225,0.0,2.0,99,0.00,BKN,SCT,0.00,0.0,WeatherDisplay:10.37,2013-02-20 05:55:00,
2013-02-20 01:00:00,36.7,36.4,29.44,SW,225,0.0,2.0,99,0.00,BKN,SCT,0.00,0.0,WeatherDisplay:10.37,2013-02-20 06:00:00,
2013-02-20 01:10:00,36.4,36.2,29.44,WSW,247,0.0,3.0,99,0.00,CLR,SCT,0.00,0.0,WeatherDisplay:10.37,2013-02-20 06:10:00,
2013-02-20 01:15:00,36.1,35.9,29.44,WSW,250,0.0,2.0,99,0.00,CLR,SCT,0.00,0.0,WeatherDisplay:10.37,2013-02-20 06:15:00,
2013-02-20 01:25:00,36.0,35.7,29.44,South,169,1.0,2.0,99,0.00,CLR,SCT,0.00,0.0,WeatherDisplay:10.37,2013-02-20 06:25:00,
2013-02-20 01:30:00,36.1,35.9,29.44,SSE,166,0.0,2.0,99,0.00,CLR,SCT,0.00,0.0,WeatherDisplay:10.37,2013-02-20 06:30:00,
2013-02-20 01:40:00,35.6,35.4,29.44,WSW,241,1.0,3.0,99,0.00,CLR,SCT,0.00,0.0,WeatherDisplay:10.37,2013-02-20 06:40:00,
2013-02-20 01:45:00,35.7,35.4,29.44,SW,228,0.0,2.0,99,0.00,CLR,SCT,0.00,0.0,WeatherDisplay:10.37,2013-02-20 06:45:00,
2013-02-20 01:55:00,36.1,35.9,29.45,SW,225,0.0,2.0,99,0.00,CLR,SCT,0.00,0.0,WeatherDisplay:10.37,2013-02-20 06:55:00,
2013-02-20 02:00:00,36.1,35.9,29.45,SE,142,0.0,2.0,99,0.00,CLR,SCT,0.00,0.0,WeatherDisplay:10.37,2013-02-20 07:00:00,
2013-02-20 02:10:00,35.8,35.5,29.45,ESE,119,0.0,4.0,99,0.00,FEW,SCT,0.00,0.0,WeatherDisplay:10.37,2013-02-20 07:10:00,
2013-02-20 02:15:00,36.5,36.2,29.45,ESE,110,1.0,3.0,99,0.00,FEW,SCT,0.00,0.0,WeatherDisplay:10.37,2013-02-20 07:15:00,
2013-02-20 02:25:00,36.8,36.5,29.44,ENE,77,0.0,3.0,99,0.00,FEW,SCT,0.00,0.0,WeatherDisplay:10.37,2013-02-20 07:25:00,
2013-02-20 02:30:00,36.8,36.6,29.44,ESE,114,1.0,2.0,99,0.00,FEW,SCT,0.00,0.0,WeatherDisplay:10.37,2013-02-20 07:30:00,
2013-02-20 02:40:00,36.3,36.1,29.44,East,96,0.0,2.0,99,0.00,FEW,SCT,0.00,0.0,WeatherDisplay:10.37,2013-02-20 07:40:00,
2013-02-20 02:45:00,36.3,36.1,29.44,East,80,1.0,5.0,99,0.00,FEW,SCT,0.00,0.0,WeatherDisplay:10.37,2013-02-20 07:45:00,
2013-02-20 02:55:00,36.6,36.3,29.44,North,7,1.0,3.0,99,0.00,FEW,SCT,0.00,0.0,WeatherDisplay:10.37,2013-02-20 07:55:00,
2013-02-20 03:00:00,36.7,36.4,29.44,NE,55,0.0,4.0,99,0.00,FEW,SCT,0.00,0.0,WeatherDisplay:10.37,2013-02-20 08:00:00,
2013-02-20 03:10:00,36.9,36.7,29.44,SW,224,1.0,4.0,99,0.00,SCT,SCT,0.00,0.0,WeatherDisplay:10.37,2013-02-20 08:10:00,
2013-02-20 03:15:00,37.0,36.7,29.44,East,100,1.0,7.0,99,0.00,SCT,SCT,0.00,0.0,WeatherDisplay:10.37,2013-02-20 08:15:00,
2013-02-20 03:25:00,36.7,36.4,29.44,North,350,1.0,7.0,99,0.00,SCT,SCT,0.00,0.0,WeatherDisplay:10.37,2013-02-20 08:25:00,
2013-02-20 03:30:00,36.4,36.2,29.44,NNE,22,1.0,7.0,99,0.00,SCT,SCT,0.00,0.0,WeatherDisplay:10.37,2013-02-20 08:30:00,
2013-02-20 03:40:00,36.0,35.7,29.44,NE,39,2.0,7.0,99,0.00,SCT,SCT,0.00,0.0,WeatherDisplay:10.37,2013-02-20 08:40:00,
2013-02-20 03:45:00,35.8,35.5,29.44,WNW,292,2.0,7.0,99,0.00,SCT,SCT,0.00,0.0,WeatherDisplay:10.37,2013-02-20 08:45:00,
2013-02-20 03:55:00,35.6,35.3,29.44,ENE,70,1.0,5.0,99,0.00,SCT,SCT,0.00,0.0,WeatherDisplay:10.37,2013-02-20 08:55:00,
2013-02-20 04:00:00,35.6,35.3,29.44,ENE,70,1.0,6.0,99,0.00,SCT,SCT,0.00,0.0,WeatherDisplay:10.37,2013-02-20 09:00:00,
2013-02-20 04:10:00,35.6,34.8,29.45,SE,134,2.0,9.0,97,0.00,BKN,SCT,0.00,0.0,WeatherDisplay:10.37,2013-02-20 09:10:00,
2013-02-20 04:15:00,35.4,34.4,29.46,ESE,109,1.0,9.0,96,0.00,BKN,SCT,0.00,0.0,WeatherDisplay:10.37,2013-02-20 09:15:00,
2013-02-20 04:25:00,35.4,33.9,29.47,NE,44,2.0,8.0,94,0.00,BKN,SCT,0.00,0.0,WeatherDisplay:10.37,2013-02-20 09:25:00,
2013-02-20 04:30:00,35.5,33.6,29.47,NNE,21,2.0,12.0,93,0.00,BKN,SCT,0.00,0.0,WeatherDisplay:10.37,2013-02-20 09:30:00,
2013-02-20 04:40:00,35.4,33.3,29.47,NNE,27,2.0,6.0,92,0.00,BKN,SCT,0.00,0.0,WeatherDisplay:10.37,2013-02-20 09:40:00,
2013-02-20 04:45:00,35.2,33.1,29.47,NNE,27,1.0,3.0,92,0.00,BKN,SCT,0.00,0.0,WeatherDisplay:10.37,2013-02-20 09:45:00,
2013-02-20 04:55:00,34.9,32.8,29.47,NE,41,1.0,6.0,92,0.00,BKN,SCT,0.00,0.0,WeatherDisplay:10.37,2013-02-20 09:55:00,
2013-02-20 05:00:00,34.7,32.3,29.47,NNE,25,3.0,7.0,91,0.00,BKN,SCT,0.00,0.0,WeatherDisplay:10.37,2013-02-20 10:00:00,
2013-02-20 05:10:00,34.7,31.2,29.47,North,0,2.0,10.0,87,0.00,OVC,SCT,0.00,0.0,WeatherDisplay:10.37,2013-02-20 10:10:00,
2013-02-20 05:15:00,34.7,30.7,29.47,North,2,3.0,13.0,85,0.00,OVC,SCT,0.00,0.0,WeatherDisplay:10.37,2013-02-20 10:15:00,
2013-02-20 05:25:00,34.5,30.4,29.48,NW,315,1.0,3.0,85,0.00,OVC,SCT,0.00,0.0,WeatherDisplay:10.37,2013-02-20 10:25:00,
2013-02-20 05:30:00,34.1,30.0,29.48,WNW,303,1.0,5.0,85,0.00,OVC,SCT,0.00,0.0,WeatherDisplay:10.37,2013-02-20 10:30:00,
2013-02-20 05:40:00,33.8,29.8,29.48,North,357,5.0,12.0,85,0.00,OVC,SCT,0.00,0.0,WeatherDisplay:10.37,2013-02-20 10:40:00,
2013-02-20 05:45:00,33.8,29.5,29.49,NNE,33,2.0,8.0,84,0.00,OVC,SCT,0.00,0.0,WeatherDisplay:10.37,2013-02-20 10:45:00,
2013-02-20 05:55:00,33.6,28.7,29.49,WNW,299,1.0,6.0,82,0.00,OVC,SCT,0.00,0.0,WeatherDisplay:10.37,2013-02-20 10:55:00,
2013-02-20 06:00:00,33.4,28.2,29.49,North,1,6.0,13.0,81,0.00,OVC,SCT,0.00,0.0,WeatherDisplay:10.37,2013-02-20 11:00:00,
2013-02-20 06:10:00,33.3,27.5,29.49,NE,45,1.0,8.0,79,0.00,SCT,SCT,0.00,0.0,WeatherDisplay:10.37,2013-02-20 11:10:00,
2013-02-20 06:15:00,33.3,27.1,29.49,NNE,31,1.0,7.0,78,0.00,SCT,SCT,0.00,0.0,WeatherDisplay:10.37,2013-02-20 11:15:00,
2013-02-20 06:25:00,33.1,26.7,29.49,North,349,1.0,7.0,77,0.00,SCT,SCT,0.00,0.0,WeatherDisplay:10.37,2013-02-20 11:25:00,
2013-02-20 06:30:00,33.1,26.3,29.50,NNW,346,5.0,10.0,76,0.00,SCT,SCT,0.00,0.0,WeatherDisplay:10.37,2013-02-20 11:30:00,
2013-02-20 06:40:00,33.1,25.7,29.50,NE,45,1.0,8.0,74,0.00,SCT,SCT,0.00,0.0,WeatherDisplay:10.37,2013-02-20 11:40:00,
2013-02-20 06:45:00,33.1,25.7,29.50,North,0,1.0,11.0,74,0.00,SCT,SCT,0.00,0.0,WeatherDisplay:10.37,2013-02-20 11:45:00,
2013-02-20 06:50:00,32.9,25.2,29.51,NNE,12,1.0,6.0,73,0.00,SCT,SCT,0.00,0.0,WeatherDisplay:10.37,2013-02-20 11:50:00,
2013-02-20 07:00:00,32.7,24.7,29.51,NE,35,3.0,15.0,72,0.00,SCT,SCT,0.00,0.0,WeatherDisplay:10.37,2013-02-20 12:00:00,
2013-02-20 07:10:00,32.7,24.3,29.52,NNW,336,1.0,8.0,71,0.00,OVC,SCT,0.00,0.0,WeatherDisplay:10.37,2013-02-20 12:10:00,
2013-02-20 07:15:00,32.7,24.3,29.52,NE,50,3.0,9.0,71,0.00,OVC,SCT,0.00,0.0,WeatherDisplay:10.37,2013-02-20 12:15:00,
2013-02-20 07:25:00,32.9,24.2,29.52,NE,52,2.0,13.0,70,0.00,OVC,SCT,0.00,0.0,WeatherDisplay:10.37,2013-02-20 12:25:00,
2013-02-20 07:30:00,32.9,24.2,29.53,NE,48,1.0,6.0,70,0.00,OVC,SCT,0.00,0.0,WeatherDisplay:10.37,2013-02-20 12:30:00,
2013-02-20 07:40:00,32.7,23.3,29.53,NNW,341,3.0,12.0,68,0.00,OVC,SCT,0.00,0.0,WeatherDisplay:10.37,2013-02-20 12:40:00,
2013-02-20 07:45:00,32.7,23.3,29.53,North,351,0.0,12.0,68,0.00,OVC,SCT,0.00,0.0,WeatherDisplay:10.37,2013-02-20 12:45:00,
2013-02-20 07:55:00,32.5,22.1,29.54,NNE,32,0.0,0.0,65,0.00,OVC,SCT,0.00,0.0,WeatherDisplay:10.37,2013-02-20 12:55:00,
2013-02-20 08:00:00,32.5,22.4,29.54,NNE,31,0.0,0.0,66,0.00,OVC,SCT,0.00,0.0,WeatherDisplay:10.37,2013-02-20 13:00:00,
2013-02-20 08:10:00,33.0,22.5,29.54,West,278,0.0,0.0,65,0.00,SCT,SCT,0.00,0.0,WeatherDisplay:10.37,2013-02-20 13:10:00,
2013-02-20 08:15:00,33.4,22.6,29.54,SSE,160,0.0,0.0,64,0.00,SCT,SCT,0.00,0.0,WeatherDisplay:10.37,2013-02-20 13:15:00,
2013-02-20 08:25:00,34.2,22.5,29.54,NNE,28,0.0,0.0,62,0.00,SCT,SCT,0.00,0.0,WeatherDisplay:10.37,2013-02-20 13:25:00,
2013-02-20 08:30:00,35.0,22.5,29.54,NE,55,0.0,0.0,60,0.00,SCT,SCT,0.00,0.0,WeatherDisplay:10.37,2013-02-20 13:30:00,
2013-02-20 08:40:00,34.1,20.4,29.55,NNE,20,0.0,0.0,57,0.00,SCT,SCT,0.00,0.0,WeatherDisplay:10.37,2013-02-20 13:40:00,
2013-02-20 08:45:00,34.3,21.0,29.55,NNE,27,0.0,0.0,58,0.00,SCT,SCT,0.00,0.0,WeatherDisplay:10.37,2013-02-20 13:45:00,
2013-02-20 08:55:00,36.0,22.2,29.54,North,355,0.0,0.0,57,0.00,SCT,SCT,0.00,0.0,WeatherDisplay:10.37,2013-02-20 13:55:00,
2013-02-20 09:00:00,37.6,22.9,29.54,North,10,0.0,0.0,55,0.00,SCT,SCT,0.00,0.0,WeatherDisplay:10.37,2013-02-20 14:00:00,
2013-02-20 09:10:00,36.1,20.6,29.54,NW,315,2.0,9.0,53,0.00,SCT,SCT,0.00,0.0,WeatherDisplay:10.37,2013-02-20 14:10:00,
2013-02-20 09:15:00,36.3,21.7,29.55,NNW,340,2.0,8.0,55,0.00,SCT,SCT,0.00,0.0,WeatherDisplay:10.37,2013-02-20 14:15:00,
2013-02-20 09:25:00,37.9,22.3,29.55,North,350,2.0,9.0,53,0.00,BKN,SCT,0.00,0.0,WeatherDisplay:10.37,2013-02-20 14:25:00,
2013-02-20 09:30:00,37.9,21.9,29.54,NNW,339,3.0,9.0,52,0.00,BKN,SCT,0.00,0.0,WeatherDisplay:10.37,2013-02-20 14:30:00,
2013-02-20 09:40:00,36.5,20.5,29.55,NNW,328,5.0,10.0,52,0.00,BKN,SCT,0.00,0.0,WeatherDisplay:10.37,2013-02-20 14:40:00,
2013-02-20 09:45:00,35.4,19.9,29.55,NNW,345,2.0,10.0,53,0.00,BKN,SCT,0.00,0.0,WeatherDisplay:10.37,2013-02-20 14:45:00,
2013-02-20 09:55:00,34.2,19.7,29.55,NW,325,5.0,15.0,55,0.00,BKN,SCT,0.00,0.0,WeatherDisplay:10.37,2013-02-20 14:55:00,
2013-02-20 10:00:00,34.0,19.5,29.55,East,85,3.0,12.0,55,0.00,BKN,SCT,0.00,0.0,WeatherDisplay:10.37,2013-02-20 15:00:00,
2013-02-20 10:10:00,33.8,19.7,29.55,ENE,77,3.0,10.0,56,0.00,BKN,SCT,0.00,0.0,WeatherDisplay:10.37,2013-02-20 15:10:00,
2013-02-20 10:15:00,33.8,19.7,29.56,ENE,70,6.0,13.0,56,0.00,BKN,SCT,0.00,0.0,WeatherDisplay:10.37,2013-02-20 15:15:00,
2013-02-20 10:20:00,33.8,19.7,29.55,ENE,57,3.0,13.0,56,0.00,BKN,SCT,0.00,0.0,WeatherDisplay:10.37,2013-02-20 15:20:00,
2013-02-20 10:30:00,33.9,18.5,29.56,NNW,342,3.0,11.0,53,0.00,BKN,SCT,0.00,0.0,WeatherDisplay:10.37,2013-02-20 15:30:00,
2013-02-20 10:40:00,34.7,18.9,29.56,North,10,3.0,14.0,52,0.00,BKN,SCT,0.00,0.0,WeatherDisplay:10.37,2013-02-20 15:40:00,
2013-02-20 10:45:00,34.7,19.7,29.56,NNE,14,2.0,13.0,54,0.00,BKN,SCT,0.00,0.0,WeatherDisplay:10.37,2013-02-20 15:45:00,
2013-02-20 10:55:00,34.3,18.9,29.56,North,9,3.0,8.0,53,0.00,BKN,SCT,0.00,0.0,WeatherDisplay:10.37,2013-02-20 15:55:00,
2013-02-20 11:00:00,34.0,18.6,29.56,North,349,3.0,13.0,53,0.00,BKN,SCT,0.00,0.0,WeatherDisplay:10.37,2013-02-20 16:00:00,
2013-02-20 11:10:00,34.7,19.7,29.56,NW,318,2.0,13.0,54,0.00,BKN,SCT,0.00,0.0,WeatherDisplay:10.37,2013-02-20 16:10:00,
2013-02-20 11:15:00,34.9,18.6,29.56,NNE,22,3.0,17.0,51,0.00,BKN,SCT,0.00,0.0,WeatherDisplay:10.37,2013-02-20 16:15:00,
2013-02-20 11:25:00,36.0,18.7,29.56,North,360,3.0,10.0,49,0.00,BKN,SCT,0.00,0.0,WeatherDisplay:10.37,2013-02-20 16:25:00,
2013-02-20 11:30:00,35.4,18.1,29.56,NNW,330,5.0,11.0,49,0.00,BKN,SCT,0.00,0.0,WeatherDisplay:10.37,2013-02-20 16:30:00,
2013-02-20 11:40:00,34.7,18.9,29.56,NE,43,5.0,8.0,52,0.00,BKN,SCT,0.00,0.0,WeatherDisplay:10.37,2013-02-20 16:40:00,
2013-02-20 11:45:00,34.5,17.3,29.56,NE,49,5.0,13.0,49,0.00,BKN,SCT,0.00,0.0,WeatherDisplay:10.37,2013-02-20 16:45:00,
2013-02-20 11:50:00,35.2,18.0,29.56,ENE,60,3.0,12.0,49,0.00,BKN,SCT,0.00,0.0,WeatherDisplay:10.37,2013-02-20 16:50:00,
2013-02-20 12:00:00,35.2,17.5,29.55,NNW,341,5.0,12.0,48,0.00,BKN,SCT,0.00,0.0,WeatherDisplay:10.37,2013-02-20 17:00:00,
2013-02-20 12:10:00,34.6,16.4,29.55,NNW,346,3.0,10.0,47,0.00,OVC,SCT,0.00,0.0,WeatherDisplay:10.37,2013-02-20 17:10:00,
2013-02-20 12:15:00,34.2,16.0,29.55,North,4,3.0,9.0,47,0.00,OVC,SCT,0.00,0.0,WeatherDisplay:10.37,2013-02-20 17:15:00,
2013-02-20 12:25:00,34.0,15.8,29.55,East,84,2.0,9.0,47,0.00,OVC,SCT,0.00,0.0,WeatherDisplay:10.37,2013-02-20 17:25:00,
2013-02-20 12:30:00,34.3,16.7,29.55,NNE,20,3.0,13.0,48,0.00,OVC,SCT,0.00,0.0,WeatherDisplay:10.37,2013-02-20 17:30:00,
2013-02-20 12:40:00,35.0,17.3,29.54,ENE,66,2.0,8.0,48,0.00,OVC,SCT,0.00,0.0,WeatherDisplay:10.37,2013-02-20 17:40:00,
2013-02-20 12:45:00,35.2,17.0,29.54,NE,49,2.0,8.0,47,0.00,OVC,SCT,0.00,0.0,WeatherDisplay:10.37,2013-02-20 17:45:00,
2013-02-20 12:55:00,35.0,16.3,29.54,North,351,3.0,11.0,46,0.00,OVC,SCT,0.00,0.0,WeatherDisplay:10.37,2013-02-20 17:55:00,
2013-02-20 13:00:00,34.7,15.5,29.54,North,359,2.0,11.0,45,0.00,OVC,SCT,0.00,0.0,WeatherDisplay:10.37,2013-02-20 18:00:00,
2013-02-20 13:10:00,34.7,16.0,29.54,SW,231,5.0,13.0,46,0.00,OVC,SCT,0.00,0.0,WeatherDisplay:10.37,2013-02-20 18:10:00,
2013-02-20 13:15:00,34.5,15.8,29.54,WNW,291,3.0,16.0,46,0.00,OVC,SCT,0.00,0.0,WeatherDisplay:10.37,2013-02-20 18:15:00,
2013-02-20 13:25:00,34.2,15.0,29.53,NE,34,3.0,12.0,45,0.00,OVC,SCT,0.00,0.0,WeatherDisplay:10.37,2013-02-20 18:25:00,
2013-02-20 13:30:00,34.3,15.2,29.53,NW,325,5.0,15.0,45,0.00,OVC,SCT,0.00,0.0,WeatherDisplay:10.37,2013-02-20 18:30:00,
2013-02-20 13:40:00,36.6,16.2,29.53,NE,45,3.0,9.0,43,0.00,OVC,SCT,0.00,0.0,WeatherDisplay:10.37,2013-02-20 18:40:00,
2013-02-20 13:45:00,37.0,15.5,29.53,ENE,73,2.0,9.0,41,0.00,OVC,SCT,0.00,0.0,WeatherDisplay:10.37,2013-02-20 18:45:00,
2013-02-20 13:50:00,36.5,15.5,29.54,NNE,31,3.0,7.0,42,0.00,OVC,SCT,0.00,0.0,WeatherDisplay:10.37,2013-02-20 18:50:00,
2013-02-20 14:00:00,34.7,14.5,29.54,North,351,3.0,16.0,43,0.00,OVC,SCT,0.00,0.0,WeatherDisplay:10.37,2013-02-20 19:00:00,
2013-02-20 14:10:00,35.2,14.9,29.53,North,360,3.0,15.0,43,0.00,OVC,SCT,0.00,0.0,WeatherDisplay:10.37,2013-02-20 19:10:00,
2013-02-20 14:15:00,35.0,14.2,29.53,North,2,5.0,15.0,42,0.00,OVC,SCT,0.00,0.0,WeatherDisplay:10.37,2013-02-20 19:15:00,
2013-02-20 14:25:00,34.2,13.4,29.54,NW,318,6.0,13.0,42,0.00,OVC,SCT,0.00,0.0,WeatherDisplay:10.37,2013-02-20 19:25:00,
2013-02-20 14:30:00,34.1,13.4,29.54,WNW,302,5.0,11.0,42,0.00,OVC,SCT,0.00,0.0,WeatherDisplay:10.37,2013-02-20 19:30:00,
2013-02-20 14:40:00,34.1,13.4,29.54,NE,43,3.0,23.0,42,0.00,OVC,SCT,0.00,0.0,WeatherDisplay:10.37,2013-02-20 19:40:00,
2013-02-20 14:45:00,34.0,13.8,29.54,North,3,2.0,23.0,43,0.00,OVC,SCT,0.00,0.0,WeatherDisplay:10.37,2013-02-20 19:45:00,
2013-02-20 14:55:00,34.3,14.1,29.54,North,352,1.0,6.0,43,0.00,OVC,SCT,0.00,0.0,WeatherDisplay:10.37,2013-02-20 19:55:00,
2013-02-20 15:00:00,34.5,13.2,29.54,NNW,330,5.0,11.0,41,0.00,OVC,SCT,0.00,0.0,WeatherDisplay:10.37,2013-02-20 20:00:00,
2013-02-20 15:10:00,34.3,12.5,29.55,NNE,21,5.0,16.0,40,0.00,BKN,SCT,0.00,0.0,WeatherDisplay:10.37,2013-02-20 20:10:00,
2013-02-20 15:15:00,33.9,11.5,29.55,NNE,14,3.0,10.0,39,0.00,BKN,SCT,0.00,0.0,WeatherDisplay:10.37,2013-02-20 20:15:00,
2013-02-20 15:25:00,33.2,11.4,29.55,NNE,28,2.0,13.0,40,0.00,BKN,SCT,0.00,0.0,WeatherDisplay:10.37,2013-02-20 20:25:00,
2013-02-20 15:30:00,33.1,11.9,29.55,North,352,2.0,10.0,41,0.00,BKN,SCT,0.00,0.0,WeatherDisplay:10.37,2013-02-20 20:30:00,
2013-02-20 15:40:00,33.1,12.4,29.55,NW,305,2.0,13.0,42,0.00,BKN,SCT,0.00,0.0,WeatherDisplay:10.37,2013-02-20 20:40:00,
2013-02-20 15:45:00,33.2,12.0,29.56,NE,36,2.0,9.0,41,0.00,BKN,SCT,0.00,0.0,WeatherDisplay:10.37,2013-02-20 20:45:00,
2013-02-20 15:55:00,33.1,11.9,29.56,NNW,347,3.0,15.0,41,0.00,BKN,SCT,0.00,0.0,WeatherDisplay:10.37,2013-02-20 20:55:00,
2013-02-20 16:00:00,32.9,12.3,29.55,SE,125,3.0,15.0,42,0.00,BKN,SCT,0.00,0.0,WeatherDisplay:10.37,2013-02-20 21:00:00,
2013-02-20 16:10:00,32.7,12.1,29.56,North,355,3.0,8.0,42,0.00,BKN,SCT,0.00,0.0,WeatherDisplay:10.37,2013-02-20 21:10:00,
2013-02-20 16:15:00,32.7,12.1,29.56,NNW,342,3.0,9.0,42,0.00,BKN,SCT,0.00,0.0,WeatherDisplay:10.37,2013-02-20 21:15:00,
2013-02-20 16:25:00,32.4,12.8,29.57,North,10,3.0,8.0,44,0.00,BKN,SCT,0.00,0.0,WeatherDisplay:10.37,2013-02-20 21:25:00,
2013-02-20 16:30:00,32.3,12.2,29.57,North,4,1.0,7.0,43,0.00,BKN,SCT,0.00,0.0,WeatherDisplay:10.37,2013-02-20 21:30:00,
2013-02-20 16:40:00,31.5,11.5,29.58,North,357,3.0,9.0,43,0.00,BKN,SCT,0.00,0.0,WeatherDisplay:10.37,2013-02-20 21:40:00,
2013-02-20 16:45:00,31.1,11.2,29.57,North,356,3.0,11.0,43,0.00,BKN,SCT,0.00,0.0,WeatherDisplay:10.37,2013-02-20 21:45:00,
2013-02-20 16:50:00,30.9,11.0,29.57,North,6,2.0,8.0,43,0.00,BKN,SCT,0.00,0.0,WeatherDisplay:10.37,2013-02-20 21:50:00,
2013-02-20 16:55:00,30.6,11.7,29.57,NNE,24,2.0,8.0,45,0.00,BKN,SCT,0.00,0.0,WeatherDisplay:10.37,2013-02-20 21:55:00,
2013-02-20 17:00:00,30.4,11.5,29.57,North,11,5.0,12.0,45,0.00,BKN,SCT,0.00,0.0,WeatherDisplay:10.37,2013-02-20 22:00:00,
2013-02-20 17:10:00,30.0,11.7,29.57,NW,323,2.0,13.0,46,0.00,BKN,SCT,0.00,0.0,WeatherDisplay:10.37,2013-02-20 22:10:00,
2013-02-20 17:15:00,29.8,11.5,29.58,NNE,33,3.0,10.0,46,0.00,BKN,SCT,0.00,0.0,WeatherDisplay:10.37,2013-02-20 22:15:00,
2013-02-20 17:25:00,29.7,11.4,29.58,NNE,12,2.0,10.0,46,0.00,BKN,SCT,0.00,0.0,WeatherDisplay:10.37,2013-02-20 22:25:00,
2013-02-20 17:30:00,29.5,11.2,29.58,NW,317,3.0,10.0,46,0.00,BKN,SCT,0.00,0.0,WeatherDisplay:10.37,2013-02-20 22:30:00,
2013-02-20 17:40:00,29.1,10.9,29.59,NE,36,3.0,7.0,46,0.00,FEW,SCT,0.00,0.0,WeatherDisplay:10.37,2013-02-20 22:40:00,
2013-02-20 17:45:00,29.1,11.4,29.59,NNE,14,2.0,8.0,47,0.00,FEW,SCT,0.00,0.0,WeatherDisplay:10.37,2013-02-20 22:45:00,
2013-02-20 17:50:00,28.9,11.2,29.59,South,174,3.0,10.0,47,0.00,FEW,SCT,0.00,0.0,WeatherDisplay:10.37,2013-02-20 22:50:00,
2013-02-20 18:00:00,28.8,11.5,29.60,North,349,5.0,10.0,48,0.00,FEW,SCT,0.00,0.0,WeatherDisplay:10.37,2013-02-20 23:00:00,
2013-02-20 18:10:00,28.6,11.8,29.60,ENE,65,2.0,6.0,49,0.00,SCT,SCT,0.00,0.0,WeatherDisplay:10.37,2013-02-20 23:10:00,
2013-02-20 18:15:00,28.4,11.6,29.60,ENE,67,2.0,12.0,49,0.00,SCT,SCT,0.00,0.0,WeatherDisplay:10.37,2013-02-20 23:15:00,
2013-02-20 18:20:00,28.4,11.6,29.61,NE,41,2.0,12.0,49,0.00,SCT,SCT,0.00,0.0,WeatherDisplay:10.37,2013-02-20 23:20:00,
2013-02-20 18:30:00,28.2,11.9,29.61,SE,128,3.0,10.0,50,0.00,SCT,SCT,0.00,0.0,WeatherDisplay:10.37,2013-02-20 23:30:00,
2013-02-20 18:40:00,28.0,11.8,29.61,ENE,58,2.0,6.0,50,0.00,SCT,SCT,0.00,0.0,WeatherDisplay:10.37,2013-02-20 23:40:00,
2013-02-20 18:45:00,28.0,11.7,29.61,NE,43,2.0,6.0,50,0.00,SCT,SCT,0.00,0.0,WeatherDisplay:10.37,2013-02-20 23:45:00,
2013-02-20 18:55:00,27.9,12.1,29.62,NW,322,2.0,8.0,51,0.00,SCT,SCT,0.00,0.0,WeatherDisplay:10.37,2013-02-20 23:55:00,
2013-02-20 19:00:00,27.9,11.6,29.62,North,4,2.0,11.0,50,0.00,SCT,SCT,0.00,0.0,WeatherDisplay:10.37,2013-02-21 00:00:00,
2013-02-20 19:10:00,28.0,11.7,29.62,ENE,64,2.0,8.0,50,0.00,FEW,SCT,0.00,0.0,WeatherDisplay:10.37,2013-02-21 00:10:00,
2013-02-20 19:15:00,27.9,11.6,29.62,NNE,27,5.0,13.0,50,0.00,FEW,SCT,0.00,0.0,WeatherDisplay:10.37,2013-02-21 00:15:00,
2013-02-20 19:25:00,28.0,12.2,29.61,ENE,63,3.0,6.0,51,0.00,FEW,SCT,0.00,0.0,WeatherDisplay:10.37,2013-02-21 00:25:00,
2013-02-20 19:30:00,27.9,12.1,29.62,ENE,58,2.0,8.0,51,0.00,FEW,SCT,0.00,0.0,WeatherDisplay:10.37,2013-02-21 00:30:00,
2013-02-20 19:40:00,27.9,12.1,29.62,North,11,2.0,8.0,51,0.00,FEW,SCT,0.00,0.0,WeatherDisplay:10.37,2013-02-21 00:40:00,
2013-02-20 19:45:00,27.9,11.6,29.61,NNE,30,1.0,8.0,50,0.00,FEW,SCT,0.00,0.0,WeatherDisplay:10.37,2013-02-21 00:45:00,
2013-02-20 19:55:00,27.9,12.1,29.62,NNW,342,2.0,8.0,51,0.00,FEW,SCT,0.00,0.0,WeatherDisplay:10.37,2013-02-21 00:55:00,
2013-02-20 20:00:00,27.7,11.9,29.62,NNW,336,2.0,8.0,51,0.00,FEW,SCT,0.00,0.0,WeatherDisplay:10.37,2013-02-21 01:00:00,
2013-02-20 20:10:00,27.7,11.9,29.62,North,359,2.0,10.0,51,0.00,CLR,SCT,0.00,0.0,WeatherDisplay:10.37,2013-02-21 01:10:00,
2013-02-20 20:15:00,27.6,11.8,29.63,NNE,19,1.0,9.0,51,0.00,CLR,SCT,0.00,0.0,WeatherDisplay:10.37,2013-02-21 01:15:00,
2013-02-20 20:25:00,27.3,12.0,29.63,NNW,328,2.0,8.0,52,0.00,CLR,SCT,0.00,0.0,WeatherDisplay:10.37,2013-02-21 01:25:00,
2013-02-20 20:30:00,27.1,11.8,29.63,NNW,336,1.0,9.0,52,0.00,CLR,SCT,0.00,0.0,WeatherDisplay:10.37,2013-02-21 01:30:00,
2013-02-20 20:40:00,27.1,11.8,29.63,East,85,2.0,6.0,52,0.00,CLR,SCT,0.00,0.0,WeatherDisplay:10.37,2013-02-21 01:40:00,
2013-02-20 20:45:00,26.8,11.5,29.63,ESE,105,3.0,8.0,52,0.00,CLR,SCT,0.00,0.0,WeatherDisplay:10.37,2013-02-21 01:45:00,
2013-02-20 20:55:00,26.6,11.7,29.63,NNW,348,3.0,8.0,53,0.00,CLR,SCT,0.00,0.0,WeatherDisplay:10.37,2013-02-21 01:55:00,
2013-02-20 21:00:00,26.6,11.7,29.63,NNE,23,2.0,8.0,53,0.00,CLR,SCT,0.00,0.0,WeatherDisplay:10.37,2013-02-21 02:00:00,
2013-02-20 21:10:00,26.5,12.1,29.64,NNW,328,2.0,8.0,54,0.00,CLR,SCT,0.00,0.0,WeatherDisplay:10.37,2013-02-21 02:10:00,
2013-02-20 21:15:00,26.4,12.4,29.63,NE,48,1.0,8.0,55,0.00,CLR,SCT,0.00,0.0,WeatherDisplay:10.37,2013-02-21 02:15:00,
2013-02-20 21:25:00,26.2,12.2,29.64,North,358,2.0,8.0,55,0.00,CLR,SCT,0.00,0.0,WeatherDisplay:10.37,2013-02-21 02:25:00,
2013-02-20 21:30:00,26.2,12.2,29.64,NE,38,2.0,5.0,55,0.00,CLR,SCT,0.00,0.0,WeatherDisplay:10.37,2013-02-21 02:30:00,
2013-02-20 21:40:00,26.1,12.1,29.65,NNE,12,1.0,7.0,55,0.00,CLR,SCT,0.00,0.0,WeatherDisplay:10.37,2013-02-21 02:40:00,
2013-02-20 21:45:00,26.0,12.0,29.64,North,7,1.0,3.0,55,0.00,CLR,SCT,0.00,0.0,WeatherDisplay:10.37,2013-02-21 02:45:00,
2013-02-20 21:55:00,25.9,12.3,29.64,North,359,2.0,5.0,56,0.00,CLR,SCT,0.00,0.0,WeatherDisplay:10.37,2013-02-21 02:55:00,
2013-02-20 22:00:00,26.1,12.5,29.64,NE,44,1.0,8.0,56,0.00,CLR,SCT,0.00,0.0,WeatherDisplay:10.37,2013-02-21 03:00:00,
2013-02-20 22:10:00,26.1,12.5,29.65,ENE,58,2.0,6.0,56,0.00,CLR,SCT,0.00,0.0,WeatherDisplay:10.37,2013-02-21 03:10:00,
2013-02-20 22:15:00,26.2,12.7,29.65,NE,46,1.0,7.0,56,0.00,CLR,SCT,0.00,0.0,WeatherDisplay:10.37,2013-02-21 03:15:00,
2013-02-20 22:25:00,26.2,12.7,29.66,ENE,71,2.0,7.0,56,0.00,CLR,SCT,0.00,0.0,WeatherDisplay:10.37,2013-02-21 03:25:00,
2013-02-20 22:30:00,26.4,13.2,29.66,East,94,2.0,6.0,57,0.00,CLR,SCT,0.00,0.0,WeatherDisplay:10.37,2013-02-21 03:30:00,
2013-02-20 22:40:00,26.4,12.8,29.66,NW,324,0.0,7.0,56,0.00,CLR,SCT,0.00,0.0,WeatherDisplay:10.37,2013-02-21 03:40:00,
2013-02-20 22:45:00,26.4,13.2,29.66,NNW,344,0.0,7.0,57,0.00,CLR,SCT,0.00,0.0,WeatherDisplay:10.37,2013-02-21 03:45:00,
2013-02-20 22:50:00,26.4,13.2,29.67,East,82,1.0,5.0,57,0.00,CLR,SCT,0.00,0.0,WeatherDisplay:10.37,2013-02-21 03:50:00,
2013-02-20 22:55:00,26.4,13.2,29.67,East,86,1.0,4.0,57,0.00,CLR,SCT,0.00,0.0,WeatherDisplay:10.37,2013-02-21 03:55:00,
2013-02-20 23:00:00,26.4,13.2,29.67,NE,52,1.0,5.0,57,0.00,CLR,SCT,0.00,0.0,WeatherDisplay:10.37,2013-02-21 04:00:00,
2013-02-20 23:10:00,26.4,13.2,29.67,WNW,287,2.0,6.0,57,0.00,CLR,SCT,0.00,0.0,WeatherDisplay:10.37,2013-02-21 04:10:00,
2013-02-20 23:15:00,26.4,13.6,29.67,SW,235,2.0,7.0,58,0.00,CLR,SCT,0.00,0.0,WeatherDisplay:10.37,2013-02-21 04:15:00,
2013-02-20 23:25:00,26.4,13.6,29.67,North,353,1.0,9.0,58,0.00,CLR,SCT,0.00,0.0,WeatherDisplay:10.37,2013-02-21 04:25:00,
2013-02-20 23:30:00,26.4,13.6,29.68,NNE,14,1.0,6.0,58,0.00,CLR,SCT,0.00,0.0,WeatherDisplay:10.37,2013-02-21 04:30:00,
2013-02-20 23:40:00,26.2,13.8,29.67,SSE,151,2.0,8.0,59,0.00,CLR,SCT,0.00,0.0,WeatherDisplay:10.37,2013-02-21 04:40:00,
2013-02-20 23:45:00,26.2,13.8,29.67,NNE,30,2.0,8.0,59,0.00,CLR,SCT,0.00,0.0,WeatherDisplay:10.37,2013-02-21 04:45:00,
2013-02-20 23:55:00,26.1,14.1,29.67,NW,326,2.0,9.0,60,0.00,CLR,SCT,0.00,0.0,WeatherDisplay:10.37,2013-02-21 04:55:00,